Flight Track Log - Related Links

Times and Time Zones

All times are in EDT time to prevent confusion due to time zone crossing. See the CPZ5714 flight status page for this flight to view local times or setup timezone preferences in your user account.

Time Position Orientation Groundspeed Altitude Reporting Facility
EDT Latitude Longitude Course Direction KTS MPH feet Rate Location/Type
Tue 08:36:53 PM 44.8667 -93.1500 70° East 165 190 2,300  Level Minneapolis TRACON
Tue 08:37:34 PM 44.8642 -93.1069 95° East 199 229 3,000 2,039 Climbing Minneapolis Center
Tue 08:38:36 PM 44.9275 -93.0386 37° Northeast 271 312 5,800 2,806 Climbing Minneapolis Center
Tue 08:39:00 PM 45.0463 -92.5965 68° East  Level FlightAware Approximate
Tue 08:39:38 PM 44.9975 -92.9917 25° Northeast 282 325 8,800  Level Minneapolis Center
Tue 08:40:00 PM 45.0899 -92.4404 70° East  Level FlightAware Approximate
Tue 08:40:40 PM 45.0578 -92.9108 43° Northeast 298 343 10,800  Level Minneapolis Center
Tue 08:41:00 PM 45.1257 -92.2810 70° East  Level FlightAware Approximate
Tue 08:41:42 PM 45.1283 -92.8167 43° Northeast 345 397 12,900  Level Minneapolis Center
Tue 08:42:00 PM 45.1644 -92.1256 70° East  Level FlightAware Approximate
Tue 08:42:44 PM 45.2008 -92.7192 43° Northeast 358 412 15,200  Level Minneapolis Center
Tue 08:43:46 PM 45.2592 -92.6022 55° Northeast 370 426 17,200 2,177 Climbing Minneapolis Center
Tue 08:44:48 PM 45.2836 -92.4228 79° East 385 443 19,700 2,081 Climbing Minneapolis Center
Tue 08:45:50 PM 45.3067 -92.2642 78° East 405 466 21,500 1,839 Climbing Minneapolis Center
Tue 08:46:52 PM 45.3281 -92.1006 79° East 419 482 23,500 1,742 Climbing Minneapolis Center
Tue 08:47:54 PM 45.3369 -91.9333 86° East 426 490 25,100 1,403 Climbing Minneapolis Center
Tue 08:48:56 PM 45.3258 -91.7611 95° East 437 503 26,400 1,355 Climbing Minneapolis Center
Tue 08:49:58 PM 45.3139 -91.5861 95° East 445 512 27,900 1,452 Climbing Minneapolis Center
Tue 08:51:00 PM 45.3008 -91.3783 95° East 443 510 29,400 1,161 Climbing Minneapolis Center
Tue 08:52:02 PM 45.2881 -91.1925 96° East 446 513 30,300 919 Climbing Minneapolis Center
Tue 08:53:04 PM 45.2753 -91.0161 96° East 448 516 31,300 823 Climbing Minneapolis Center
Tue 08:54:06 PM 45.2650 -90.8386 95° East 451 519 32,000 532 Climbing Minneapolis Center
Tue 08:55:08 PM 45.2506 -90.6575 96° East 459 528 32,400 484 Climbing Minneapolis Center
Tue 08:56:10 PM 45.2383 -90.4744 95° East 466 536 33,000 532 Climbing Minneapolis Center
Tue 08:57:12 PM 45.2253 -90.2883 96° East 475 547 33,500 677 Climbing Minneapolis Center
Tue 08:58:14 PM 45.2081 -90.0617 96° East 482 555 34,400 726 Climbing Minneapolis Center
Tue 08:59:16 PM 45.1931 -89.8736 96° East 483 556 35,000 290 Climbing Minneapolis Center
Tue 09:00:18 PM 45.1792 -89.6839 96° East 486 559 35,000  Level Minneapolis Center
Tue 09:01:20 PM 45.1636 -89.4944 97° East 487 560 35,000  Level Minneapolis Center
Tue 09:02:22 PM 45.1483 -89.3017 96° East 494 568 35,000  Level Minneapolis Center
Tue 09:03:25 PM 45.1292 -89.0708 97° East 494 568 35,000  Level Minneapolis Center
Tue 09:04:27 PM 45.1131 -88.8814 97° East 488 562 35,000  Level Minneapolis Center
Tue 09:05:29 PM 45.0958 -88.6917 97° East 488 562 35,000  Level Minneapolis Center
Tue 09:06:31 PM 45.0800 -88.5025 97° East 492 566 35,000  Level Minneapolis Center
Tue 09:07:33 PM 45.0628 -88.3097 97° East 494 568 35,000  Level Minneapolis Center
Tue 09:08:35 PM 45.0442 -88.1181 98° East 494 568 35,000 194 Level Minneapolis Center
Tue 09:09:37 PM 45.0222 -87.8850 98° East 497 572 35,400 629 Climbing Minneapolis Center
Tue 09:10:39 PM 45.0039 -87.6939 98° East 494 568 36,300 774 Climbing Minneapolis Center
Tue 09:11:41 PM 44.9861 -87.5064 98° East 485 558 37,000 339 Climbing Minneapolis Center
Tue 09:12:43 PM 44.9664 -87.3172 98° East 487 560 37,000  Level Minneapolis Center
Tue 09:13:45 PM 44.9475 -87.1236 98° East 497 572 37,000  Level Minneapolis Center
Tue 09:14:47 PM 44.9275 -86.9308 98° East 498 573 37,000  Level Minneapolis Center
Tue 09:15:49 PM 44.9044 -86.7142 98° East 495 570 37,000  Level Minneapolis Center
Tue 09:16:51 PM 44.8844 -86.5236 98° East 494 568 37,000  Level Minneapolis Center
Tue 09:17:53 PM 44.8642 -86.3322 98° East 493 567 37,000  Level Minneapolis Center
Tue 09:18:55 PM 44.8428 -86.1414 99° East 494 568 37,000  Level Minneapolis Center
Tue 09:19:58 PM 44.8175 -85.9147 99° East 491 565 37,000  Level Minneapolis Center
Tue 09:21:00 PM 44.7964 -85.7278 99° East 488 562 37,000  Level Minneapolis Center
Tue 09:22:02 PM 44.7767 -85.5508 99° East 483 556 37,000  Level Minneapolis Center
Tue 09:23:04 PM 44.7547 -85.3667 99° East 480 552 37,000  Level Minneapolis Center
Tue 09:24:06 PM 44.7292 -85.1469 99° East 476 548 37,000  Level Minneapolis Center
Tue 09:25:08 PM 44.7064 -84.9636 100° East 477 549 37,000  Level Minneapolis Center
Tue 09:26:10 PM 44.6839 -84.7800 100° East 477 549 37,000  Level Minneapolis Center
Tue 09:27:12 PM 44.6614 -84.5967 100° East 478 550 37,000  Level Minneapolis Center
Tue 09:28:14 PM 44.6386 -84.4119 100° East 480 552 37,000  Level Minneapolis Center
Tue 09:29:16 PM 44.6156 -84.2264 100° East 483 556 37,000  Level Minneapolis Center
Tue 09:30:18 PM 44.5869 -84.0058 100° East 481 554 37,000  Level Minneapolis Center
Tue 09:31:20 PM 44.5628 -83.8222 100° East 480 552 37,000  Level Minneapolis Center
Tue 09:32:22 PM 44.5372 -83.6383 101° East 482 555 37,000  Level Minneapolis Center
Tue 09:33:24 PM 44.5136 -83.4556 100° East 480 552 37,000  Level Minneapolis Center
Tue 09:34:26 PM 44.4881 -83.2725 101° East 479 551 37,000  Level Minneapolis Center
Tue 09:35:28 PM 44.4644 -83.0881 100° East 482 555 37,000  Level Minneapolis Center
Tue 09:36:30 PM 44.4319 -82.8675 102° East 483 556 37,000  Level Minneapolis Center
Tue 09:37:32 PM 44.4064 -82.6847 101° East 482 555 37,000  Level Minneapolis Center
Tue 09:38:33 PM 44.3808 -82.4992 101° East 485 558 37,000  Level Minneapolis Center
Tue 09:39:06 PM 44.3500 -82.3833 110° East 480 552 37,000  Level Toronto Center
Tue 09:40:06 PM 44.3167 -82.2000 104° East 480 552 37,000 -400 Level Toronto Center
Tue 09:41:06 PM 44.2833 -82.0333 106° East 470 541 36,200 -1,000 Descending Toronto Center
Tue 09:42:06 PM 44.2667 -81.8500 97° East 480 552 35,000 -600 Descending Toronto Center
Tue 09:43:06 PM 44.2500 -81.6500 97° East 480 552 35,000  Level Toronto Center
Tue 09:44:06 PM 44.2167 -81.4667 104° East 480 552 35,000  Level Toronto Center
Tue 09:45:06 PM 44.1833 -81.3000 106° East 480 552 35,000  Level Toronto Center
Tue 09:46:06 PM 44.1500 -81.1167 104° East 480 552 35,000  Level Toronto Center
Tue 09:47:06 PM 44.1167 -80.9333 104° East 470 541 35,000  Level Toronto Center
Tue 09:48:06 PM 44.1167 -80.7667 90° East 470 541 35,000  Level Toronto Center
Tue 09:49:06 PM 44.0833 -80.5833 104° East 470 541 35,000  Level Toronto Center
Tue 09:50:06 PM 44.0500 -80.4000 104° East 480 552 35,000  Level Toronto Center
Tue 09:51:06 PM 44.0167 -80.2167 104° East 480 552 35,000  Level Toronto Center
Tue 09:52:06 PM 43.9833 -80.0500 105° East 480 552 35,000  Level Toronto Center
Tue 09:53:06 PM 43.9500 -79.8667 104° East 480 552 35,000  Level Toronto Center
Tue 09:54:06 PM 43.9333 -79.6833 97° East 480 552 35,000  Level Toronto Center
Tue 09:55:06 PM 43.9000 -79.5167 105° East 480 552 35,000  Level Toronto Center
Tue 09:56:06 PM 43.8667 -79.3333 104° East 480 552 35,000  Level Toronto Center
Tue 09:57:06 PM 43.8333 -79.1500 104° East 480 552 35,000  Level Toronto Center
Tue 09:58:06 PM 43.8000 -78.9667 104° East 480 552 35,000  Level Toronto Center
Tue 09:59:06 PM 43.7667 -78.7833 104° East 480 552 35,000  Level Toronto Center
Tue 10:00:06 PM 43.7333 -78.6167 105° East 480 552 35,000  Level Toronto Center
Tue 10:01:06 PM 43.7000 -78.4333 104° East 480 552 35,000  Level Toronto Center
Tue 10:02:06 PM 43.6667 -78.2500 104° East 480 552 35,000  Level Toronto Center
Tue 10:03:06 PM 43.6333 -78.0667 104° East 480 552 35,000  Level Toronto Center
Tue 10:04:11 PM 43.6086 -77.8997 102° East 478 550 35,000  Level Cleveland Center
Tue 10:05:11 PM 43.5731 -77.7208 105° East 478 550 35,000 -450 Level Cleveland Center
Tue 10:06:11 PM 43.5414 -77.5389 103° East 478 550 34,100 -1,063 Descending Cleveland Center
Tue 10:08:06 PM 43.4500 -77.1500 108° East 490 564 31,900 -1,097 Descending Toronto Center
Tue 10:09:06 PM 43.4333 -77.0000 99° East 500 575 30,900 -1,100 Descending Toronto Center
Tue 10:10:06 PM 43.4000 -76.7833 102° East 490 564 29,700 -950 Descending Toronto Center
Tue 10:11:06 PM 43.3500 -76.6333 115° Southeast 490 564 29,000 -350 Descending Toronto Center
Tue 10:12:06 PM 43.3167 -76.4500 104° East 490 564 29,000 -450 Level Toronto Center
Tue 10:13:06 PM 43.2833 -76.2667 104° East 490 564 28,100 -1,100 Descending Toronto Center
Tue 10:14:06 PM 43.2333 -76.0833 110° East 490 564 26,800 -1,200 Descending Toronto Center
Tue 10:15:06 PM 43.2000 -75.9000 104° East 480 552 25,700 -1,200 Descending Toronto Center
Tue 10:16:06 PM 43.1667 -75.7167 104° East 480 552 24,400 -1,300 Descending Toronto Center
Tue 10:17:06 PM 43.1333 -75.5667 107° East 470 541 23,100 -1,550 Descending Toronto Center
Tue 10:18:06 PM 43.1000 -75.3833 104° East 460 529 21,300 -1,750 Descending Toronto Center
Tue 10:19:06 PM 43.0667 -75.2333 107° East 460 529 19,600 -1,700 Descending Toronto Center
Tue 10:20:06 PM 43.0167 -75.0667 112° Southeast 440 506 17,900 -1,765 Descending Toronto Center
Tue 10:20:48 PM 43.0242 -74.9878 83° East 434 499 16,600 -1,624 Descending Boston Center
Tue 10:21:31 PM 43.0139 -74.8936 98° East 435 501 15,600 -1,631 Descending Boston Center
Tue 10:22:31 PM 43.0028 -74.7200 95° East 423 487 13,800 -1,700 Descending Boston Center
Tue 10:23:31 PM 42.9908 -74.5889 97° East 407 468 12,200 -1,550 Descending Boston Center
Tue 10:24:31 PM 42.9789 -74.4381 96° East 376 433 10,700 -1,300 Descending Boston Center
Tue 10:25:31 PM 42.9725 -74.3328 95° East 326 375 9,600 -1,450 Descending Boston Center
Tue 10:26:31 PM 42.9597 -74.2047 98° East 302 348 7,800 -1,750 Descending Boston Center
Tue 10:27:31 PM 42.9531 -74.1053 95° East 296 341 6,100 -1,800 Descending Boston Center
Tue 10:28:31 PM 42.9403 -73.9800 98° East 296 341 4,200 -1,550 Descending Boston Center
Tue 10:29:31 PM 42.9331 -73.8806 96° East 296 341 3,000 -600 Descending Boston Center
Tue 10:30:31 PM 42.8903 -73.8117 130° Southeast 248 285 3,000  Level Boston Center

Login

Don't have an account? Register now (free) for customized features, flight alerts, and more!